航空気象通報

ウインドサーファーのための航空気象通報による風予報です。

10/31-11/2の航空気象通報

2013年10月31日 21時20分22秒 | TAF
羽田空港
TAF RJTT 311105Z 3112/0118 15006KT 9999 FEW030
BECMG 3112/3114 35010KT
BECMG 0100/0103 08006KT
BECMG 0112/0115 02008KT
日本時間31日21時:150度から6ノットの風
21-23時:風が変化
23時-1日09時:350度から10ノットの風
09-12時:風が変化
12-21時:080度から6ノットの風
21-24時:風が変化
2日00-03時:020度から8ノットの風


静岡空港
TAF RJNS 311105Z 3112/0118 32004KT 9999 FEW030
BECMG 0100/0103 14006KT
BECMG 0109/0112 34004KT
日本時間31日21時-1日09時:320度から4ノットの風
09-12時:風が変化
12-18時:140度から6ノットの風
18-21時:風が変化
21時-2日03時:340度から4ノットの風


福岡空港
TAF RJFF 311112Z 3112/0118 13003KT CAVOK
BECMG 0100/0103 35010KT
BECMG 0109/0112 13005KT
日本時間31日21時-1日09時:130度から3ノットの風
09-12時:風が変化
12-18時:350度から10ノットの風
18-21時:風が変化
21時-2日03時:130度から5ノットの風


那覇空港
TAF ROAH 311105Z 3112/0118 06010KT 9000 -SHRA SCT010 BKN020
TEMPO 3114/3119 3000 SHRA BKN008 BKN015
BECMG 3120/3122 15011KT
日本時間31日21時-1日05時:060度から10ノットの風
05-07時:風が変化
07時-2日03時:150度から11ノットの風


マウイのカフルイ空港
PHOG 311120Z 3112/0112 06007KT P6SM FEW035 SCT070
FM312000 04013G22KT P6SM FEW035 SCT060
FM010400 04009G15KT P6SM FEW035 SCT050 AMD LTD TO WX VIS AND WIND TIL 311600
ハワイ時間31日02-10時:060度から7ノットの風
10-18時:040度から13ノット、突風22ノット
18時-1日02時:040度から9ノット、突風15ノット


サイパン空港
PGSN 311124Z 3112/0112 07011KT P6SM VCSH SCT016
FM312100 07014KT P6SM VCSH SCT016 SCT050 BKN120
マリアナ時間31日22時-1日07時:070度から11ノットの風

07-22時:070度から14ノットの風
コメント
この記事をはてなブックマークに追加

10/29-10/31の航空気象通報

2013年10月29日 21時12分26秒 | TAF
羽田空港
TAF RJTT 291111Z 2912/3018 35010KT 8000 FEW010 SCT025
BECMG 3003/3006 12006KT
BECMG 3009/3012 35014KT
日本時間29日21時-30日12時:350度から10ノットの風
12-15時:風が変化
15-18時:120度から6ノットの風
18-21時:風が変化
21時-31日03時:350度から14ノットの風


静岡空港
TAF RJNS 291107Z 2912/3018 36004KT 9999 FEW010 BKN030
BECMG 3003/3006 27014KT
TEMPO 3006/3009 27015G25KT
BECMG 3009/3012 34006KT
日本時間29日21時-30日12時:360度から4ノットの風
12-15時:風が変化
15-18時:270度から14ノットの風
但し、15-18時の間:どきどき270度から15ノット、突風25ノット
18-21時:風が変化
21時-31日03時:340度から6ノットの風


福岡空港
TAF RJFF 291105Z 2912/3018 15008KT 9999 FEW030
BECMG 3000/3003 33012KT
BECMG 3012/3015 13003KT
日本時間29日21時-30日09時:150度から8ノットの風
09-12時:風が変化
12-21時:330度から12ノットの風
21-24時:風が変化
31日00-03時:130度から3ノットの風


那覇空港
TAF ROAH 291106Z 2912/3018 04010KT 9999 FEW020 SCT040
日本時間29日21時-31日03時:040度から10ノットの風


マウイのカフルイ空港
PHOG 291122Z 2912/3012 05008KT P6SM FEW030 SCT050
FM292000 05015G20KT P6SM SCT030 SCT050
FM300600 05011KT P6SM SCT030 SCT050 AMD LTD TO WX VIS AND WIND TIL 291600
ハワイ時間29日02-10時:050度から8ノットの風
10-20時:050度から15ノット、突風20ノット
20時-30日02時:050度から11ノットの風


サイパン空港
PGSN 291120Z 2912/3012 08011KT P6SM VCSH FEW015 SCT025 SCT120
マリアナ時間29日22時-30日22時:080度から11ノットの風
コメント
この記事をはてなブックマークに追加

10/28-10/30の航空気象通報

2013年10月28日 21時23分49秒 | TAF
羽田空港
TAF RJTT 281105Z 2812/2918 08008KT 9999 FEW030 SCT060
BECMG 2813/2815 36006KT
BECMG 2903/2906 12008KT
BECMG 2912/2915 35010KT
日本時間28日21-22時:080度から8ノットの風
22-24時:風が変化
29日00-12時:360度から6ノットの風
12-15時:風が変化
15-21時:120度から8ノットの風
21-24時:風が変化
30日00-03時:350度から10ノットの風


静岡空港
TAF RJNS 281105Z 2812/2918 35004KT 9999 FEW020 BKN040
BECMG 2822/2824 06006KT
TEMPO 2906/2909 4000 -RA BR
BECMG 2912/2915 34004KT
TEMPO 2912/2918 4000 -RA BR FEW005 BKN008
日本時間28日21時-29日07時:350度から4ノットの風
07-09時:風が変化
09-21時:060度から6ノットの風
21-24時:風が変化
30日00-03時:340度から4ノットの風

但し、29日15-18時の間:どきどき
但し、29日21時-30日03時の間:どきどき

福岡空港
TAF RJFF 281108Z 2812/2918 14005KT CAVOK
BECMG 2900/2903 32010KT
BECMG 2912/2915 15010KT
日本時間28日21時-29日09時:140度から5ノットの風
09-12時:風が変化
12-21時:320度から10ノットの風
21-24時:風が変化
30日00-03時:150度から10ノットの風


那覇空港
TAF ROAH 281112Z 2812/2918 06010KT 9999 FEW025 SCT040
日本時間28日21時-30日03時:060度から10ノットの風


マウイのカフルイ空港
PHOG 281131Z 2812/2912 12004KT P6SM FEW035
FM281900 04013KT P6SM FEW030
FM290500 08007KT P6SM FEW030 SCT050 AMD LTD TO WX VIS AND WIND TIL 281600
ハワイ時間28日02-09時:120度から4ノットの風
09-19時:040度から13ノットの風
19時-29日02時:080度から7ノットの風


サイパン空港
PGSN 281131Z 2812/2912 11014KT P6SM VCSH SCT020 SCT050 BKN120
TEMPO 2812/2816 11020G30KT 3SM SHRA BKN015 BKN040 OVC080
マリアナ時間28日22時-29日22時:110度から14ノットの風

但し、28日22時-29日02時:どきどき110度から20ノット、突風30ノット
コメント
この記事をはてなブックマークに追加

10/27-10/29の航空気象通報(国内、海外)

2013年10月27日 21時54分05秒 | TAF

羽田空港
TAF RJTT 271105Z 2712/2818 36012KT 9999 FEW030 SCT060
BECMG 2800/2803 08006KT
BECMG 2806/2809 14010KT
日本時間27日21時-28日09時:360度から12ノットの風
09-12時:風が変化
12-15時:080度から6ノットの風
15-18時:風が変化
18時-29日03時:140度から10ノットの風

静岡空港
TAF RJNS 271106Z 2712/2818 36004KT 9999 FEW020
BECMG 2800/2803 10006KT
BECMG 2809/2812 36004KT
日本時間27日21時-28日09時:360度から4ノットの風
09-12時:風が変化
12-18時:100度から6ノットの風
18-21時:風が変化
21時-29日03時:360度から4ノットの風

福岡空港
TAF RJFF 271106Z 2712/2818 13005KT CAVOK
BECMG 2803/2806 32008KT
BECMG 2809/2812 14006KT
日本時間27日21時-28日12時:130度から5ノットの風
12-15時:風が変化
15-18時:320度から8ノットの風
18-21時:風が変化
21時-29日03時:140度から6ノットの風

那覇空港
TAF ROAH 271105Z 2712/2818 03008KT 9999 FEW035 SCT045
TEMPO 2800/2806 4000 SHRA
日本時間27日21時-29日03時:030度から8ノットの風

但し、28日09-15時の間:ときどき

マウイのカフルイ空港
PHOG 271137Z 2712/2812 15005KT P6SM BKN035
FM272000 35008KT P6SM SCT030
FM272300 35008KT P6SM BKN035
FM280200 VRB03KT P6SM SCT035 AMD LTD TO WX VIS AND WIND TIL 271600
ハワイ時間27日02-10時:150度から5ノットの風

10-13時:350度から8ノットの風

13-16時:350度から8ノットの風

16時-28日02時:風向不定3ノットの風

サイパン空港
PGSN 271124Z 2712/2812 09010G20KT P6SM VCSH SCT014CB BKN040 BKN100
FM271300 09011KT P6SM VCSH FEW014 SCT040 BKN110
マリアナ時間27日22-23時:090度から10ノット、突風20ノット
23時-28日22時:090度から11ノットの風

コメント
この記事をはてなブックマークに追加

10/26-10/28の航空気象通報(国内、海外)

2013年10月26日 23時02分38秒 | TAF

羽田空港
TAF RJTT 261106Z 2612/2718 34012KT 9999 FEW020 SCT040
日本時間26日21時-28日03時:340度から12ノットの風

静岡空港
TAF RJNS 261107Z 2612/2718 08007KT 9999 FEW010 SCT020
TEMPO 2612/2615 FEW003 BKN007
BECMG 2615/2617 28008KT
BECMG 2700/2703 19006KT
BECMG 2706/2709 34004KT
日本時間26日21-24時:080度から7ノットの風
27日00-02時:風が変化
02-09時:280度から8ノットの風
09-12時:風が変化
12-15時:190度から6ノットの風
15-18時:風が変化
18時-21日03時:340度から4ノットの風

但し、26日21-24時の間:ときどき

福岡空港
TAF RJFF 261111Z 2612/2718 03003KT 9999 FEW030 SCT040
BECMG 2612/2614 14005KT
BECMG 2700/2703 32008KT
BECMG 2709/2712 14005KT
日本時間26日21時:030度から3ノットの風
21-23時:風が変化
23時-27日09時:140度から5ノットの風
09-12時:風が変化
12-18時:320度から8ノットの風
18-21時:風が変化
21時-28日03時:140度から5ノットの風

那覇空港
TAF ROAH 261105Z 2612/2718 01015KT 9999 FEW030 BKN045
日本時間26日21時-28日03時:010度から15ノットの風

マウイのカフルイ空港
PHOG 261136Z 2612/2712 13004KT P6SM FEW050
FM262100 03011KT P6SM VCSH SCT030 SCT045
FM270400 VRB03KT P6SM FEW050 AMD LTD TO WX VIS AND WIND TIL 261600
ハワイ時間26日02-11時:130度から4ノットの風
11-18時:030度から11ノットの風
18時-27日02時:風向不定3ノットの風

サイパン空港
PGSN 261120Z 2612/2712 07007KT P6SM VCSH FEW018 SCT050 BKN120
TEMPO 2615/2619 08012KT 5SM SHRA SCT016CB BKN025
FM261900 12011G18KT P6SM VCSH SCT014CB BKN040 BKN100
TEMPO 2619/2623 3SM +SHRA BKN012CB OVC025
マリアナ時間26日22時-27日04時:070度から7ノットの風
但し、27日01-04時の間:ときどき080度から12ノットの風
04-22時:120度から11ノット、突風18ノット

但し、27日04-09時の間:ときどき

コメント
この記事をはてなブックマークに追加